sensor_id;sensor_type;location;lat;lon;timestamp;pressure;altitude;pressure_sealevel;temperature;humidity
11487;BME280;10510;47.942;9.442;2023-04-05T00:01:16;94914.25;;;-2.61;100.00
11487;BME280;10510;47.942;9.442;2023-04-05T00:03:19;94917.50;;;-2.59;100.00
11487;BME280;10510;47.942;9.442;2023-04-05T00:05:19;94920.78;;;-2.57;100.00
11487;BME280;10510;47.942;9.442;2023-04-05T00:07:28;94915.41;;;-2.53;100.00
11487;BME280;10510;47.942;9.442;2023-04-05T00:09:29;94923.69;;;-2.49;100.00
11487;BME280;10510;47.942;9.442;2023-04-05T00:11:31;94911.63;;;-2.47;100.00
11487;BME280;10510;47.942;9.442;2023-04-05T00:13:32;94916.03;;;-2.49;100.00
11487;BME280;10510;47.942;9.442;2023-04-05T00:15:32;94918.59;;;-2.49;100.00
11487;BME280;10510;47.942;9.442;2023-04-05T00:17:32;94917.75;;;-2.49;100.00
11487;BME280;10510;47.942;9.442;2023-04-05T00:19:32;94917.03;;;-2.52;100.00
11487;BME280;10510;47.942;9.442;2023-04-05T00:21:35;94916.22;;;-2.52;100.00
11487;BME280;10510;47.942;9.442;2023-04-05T00:23:38;94906.06;;;-2.54;100.00
11487;BME280;10510;47.942;9.442;2023-04-05T00:25:38;94903.69;;;-2.57;100.00
11487;BME280;10510;47.942;9.442;2023-04-05T00:27:42;94899.50;;;-2.58;100.00
11487;BME280;10510;47.942;9.442;2023-04-05T00:29:42;94902.81;;;-2.56;100.00
11487;BME280;10510;47.942;9.442;2023-04-05T00:31:42;94905.06;;;-2.51;100.00
11487;BME280;10510;47.942;9.442;2023-04-05T00:33:43;94900.34;;;-2.44;100.00
11487;BME280;10510;47.942;9.442;2023-04-05T00:35:43;94898.31;;;-2.39;100.00
11487;BME280;10510;47.942;9.442;2023-04-05T00:37:43;94901.41;;;-2.34;100.00
11487;BME280;10510;47.942;9.442;2023-04-05T00:39:44;94897.72;;;-2.30;100.00
11487;BME280;10510;47.942;9.442;2023-04-05T00:41:44;94895.69;;;-2.25;100.00
11487;BME280;10510;47.942;9.442;2023-04-05T00:43:45;94896.44;;;-2.23;100.00
11487;BME280;10510;47.942;9.442;2023-04-05T00:45:46;94893.75;;;-2.21;100.00
11487;BME280;10510;47.942;9.442;2023-04-05T00:47:46;94888.44;;;-2.18;100.00
11487;BME280;10510;47.942;9.442;2023-04-05T00:49:47;94891.81;;;-2.18;100.00
11487;BME280;10510;47.942;9.442;2023-04-05T00:51:47;94895.50;;;-2.22;100.00
11487;BME280;10510;47.942;9.442;2023-04-05T00:53:47;94890.16;;;-2.32;100.00
11487;BME280;10510;47.942;9.442;2023-04-05T00:55:48;94889.81;;;-2.40;100.00
11487;BME280;10510;47.942;9.442;2023-04-05T00:57:49;94884.38;;;-2.48;100.00
11487;BME280;10510;47.942;9.442;2023-04-05T00:59:49;94882.31;;;-2.56;100.00
11487;BME280;10510;47.942;9.442;2023-04-05T01:02:05;94879.31;;;-2.62;100.00
11487;BME280;10510;47.942;9.442;2023-04-05T01:04:08;94877.97;;;-2.68;100.00
11487;BME280;10510;47.942;9.442;2023-04-05T01:11:02;94864.19;;;-2.80;100.00
11487;BME280;10510;47.942;9.442;2023-04-05T01:13:05;94860.94;;;-2.82;100.00
11487;BME280;10510;47.942;9.442;2023-04-05T01:15:06;94866.97;;;-2.83;100.00
11487;BME280;10510;47.942;9.442;2023-04-05T01:17:06;94863.69;;;-2.85;100.00
11487;BME280;10510;47.942;9.442;2023-04-05T01:19:08;94858.78;;;-2.88;100.00
11487;BME280;10510;47.942;9.442;2023-04-05T01:28:43;94853.16;;;-3.07;100.00
11487;BME280;10510;47.942;9.442;2023-04-05T01:33:20;94846.78;;;-3.14;100.00
11487;BME280;10510;47.942;9.442;2023-04-05T01:37:48;94837.84;;;-3.22;100.00
11487;BME280;10510;47.942;9.442;2023-04-05T01:39:49;94837.03;;;-3.22;100.00
11487;BME280;10510;47.942;9.442;2023-04-05T01:41:50;94845.50;;;-3.22;100.00
11487;BME280;10510;47.942;9.442;2023-04-05T01:43:50;94842.97;;;-3.22;100.00
11487;BME280;10510;47.942;9.442;2023-04-05T01:45:51;94839.59;;;-3.22;100.00
11487;BME280;10510;47.942;9.442;2023-04-05T01:47:51;94843.16;;;-3.25;100.00
11487;BME280;10510;47.942;9.442;2023-04-05T01:49:51;94835.66;;;-3.28;100.00
11487;BME280;10510;47.942;9.442;2023-04-05T01:51:51;94846.00;;;-3.29;100.00
11487;BME280;10510;47.942;9.442;2023-04-05T01:53:52;94842.59;;;-3.30;100.00
11487;BME280;10510;47.942;9.442;2023-04-05T01:55:52;94834.22;;;-3.32;100.00
11487;BME280;10510;47.942;9.442;2023-04-05T01:57:53;94833.31;;;-3.31;100.00
11487;BME280;10510;47.942;9.442;2023-04-05T01:59:54;94830.00;;;-3.33;100.00
11487;BME280;10510;47.942;9.442;2023-04-05T02:01:55;94834.41;;;-3.35;100.00
11487;BME280;10510;47.942;9.442;2023-04-05T02:03:55;94833.69;;;-3.37;100.00
11487;BME280;10510;47.942;9.442;2023-04-05T02:05:56;94831.22;;;-3.38;100.00
11487;BME280;10510;47.942;9.442;2023-04-05T02:07:57;94830.59;;;-3.42;100.00
11487;BME280;10510;47.942;9.442;2023-04-05T02:09:57;94832.31;;;-3.43;100.00
11487;BME280;10510;47.942;9.442;2023-04-05T02:11:57;94825.59;;;-3.44;100.00
11487;BME280;10510;47.942;9.442;2023-04-05T02:13:57;94821.38;;;-3.45;100.00
11487;BME280;10510;47.942;9.442;2023-04-05T02:15:58;94823.03;;;-3.44;100.00
11487;BME280;10510;47.942;9.442;2023-04-05T02:17:59;94818.81;;;-3.45;100.00
11487;BME280;10510;47.942;9.442;2023-04-05T02:20:01;94824.94;;;-3.47;100.00
11487;BME280;10510;47.942;9.442;2023-04-05T02:22:02;94825.03;;;-3.49;100.00
11487;BME280;10510;47.942;9.442;2023-04-05T02:24:02;94820.00;;;-3.50;100.00
11487;BME280;10510;47.942;9.442;2023-04-05T02:26:02;94820.94;;;-3.51;100.00
11487;BME280;10510;47.942;9.442;2023-04-05T02:28:03;94822.03;;;-3.55;100.00
11487;BME280;10510;47.942;9.442;2023-04-05T02:30:04;94809.25;;;-3.55;100.00
11487;BME280;10510;47.942;9.442;2023-04-05T02:32:04;94822.94;;;-3.56;100.00
11487;BME280;10510;47.942;9.442;2023-04-05T02:34:04;94810.16;;;-3.56;100.00
11487;BME280;10510;47.942;9.442;2023-04-05T02:36:10;94808.53;;;-3.57;100.00
11487;BME280;10510;47.942;9.442;2023-04-05T02:38:10;94812.00;;;-3.58;100.00
11487;BME280;10510;47.942;9.442;2023-04-05T02:40:12;94809.44;;;-3.58;100.00
11487;BME280;10510;47.942;9.442;2023-04-05T02:42:13;94807.09;;;-3.61;100.00
11487;BME280;10510;47.942;9.442;2023-04-05T02:44:14;94806.34;;;-3.63;100.00
11487;BME280;10510;47.942;9.442;2023-04-05T02:46:14;94803.06;;;-3.66;100.00
11487;BME280;10510;47.942;9.442;2023-04-05T02:48:15;94803.06;;;-3.66;100.00
11487;BME280;10510;47.942;9.442;2023-04-05T02:50:15;94806.53;;;-3.67;100.00
11487;BME280;10510;47.942;9.442;2023-04-05T02:52:19;94799.78;;;-3.68;100.00
11487;BME280;10510;47.942;9.442;2023-04-05T02:54:20;94801.63;;;-3.70;100.00
11487;BME280;10510;47.942;9.442;2023-04-05T02:56:20;94794.03;;;-3.71;100.00
11487;BME280;10510;47.942;9.442;2023-04-05T02:58:21;94791.78;;;-3.76;100.00
11487;BME280;10510;47.942;9.442;2023-04-05T03:00:22;94790.28;;;-3.80;100.00
11487;BME280;10510;47.942;9.442;2023-04-05T03:02:22;94789.59;;;-3.82;100.00
11487;BME280;10510;47.942;9.442;2023-04-05T03:04:23;94788.13;;;-3.86;100.00
11487;BME280;10510;47.942;9.442;2023-04-05T03:06:25;94790.84;;;-3.89;100.00
11487;BME280;10510;47.942;9.442;2023-04-05T03:08:26;94791.03;;;-3.92;100.00
11487;BME280;10510;47.942;9.442;2023-04-05T03:10:28;94781.00;;;-3.95;100.00
11487;BME280;10510;47.942;9.442;2023-04-05T03:12:33;94788.03;;;-3.99;100.00
11487;BME280;10510;47.942;9.442;2023-04-05T03:14:34;94783.94;;;-4.01;100.00
11487;BME280;10510;47.942;9.442;2023-04-05T03:16:34;94779.94;;;-4.05;100.00
11487;BME280;10510;47.942;9.442;2023-04-05T03:18:35;94775.81;;;-4.08;100.00
11487;BME280;10510;47.942;9.442;2023-04-05T03:20:36;94775.09;;;-4.10;100.00
11487;BME280;10510;47.942;9.442;2023-04-05T03:22:40;94780.38;;;-4.13;100.00
11487;BME280;10510;47.942;9.442;2023-04-05T03:24:40;94782.31;;;-4.17;100.00
11487;BME280;10510;47.942;9.442;2023-04-05T03:26:45;94776.38;;;-4.17;100.00
11487;BME280;10510;47.942;9.442;2023-04-05T03:28:45;94774.91;;;-4.21;100.00
11487;BME280;10510;47.942;9.442;2023-04-05T03:30:45;94768.25;;;-4.24;100.00
11487;BME280;10510;47.942;9.442;2023-04-05T03:32:46;94777.81;;;-4.27;100.00
11487;BME280;10510;47.942;9.442;2023-04-05T03:34:46;94778.91;;;-4.31;100.00
11487;BME280;10510;47.942;9.442;2023-04-05T03:36:46;94774.81;;;-4.34;100.00
11487;BME280;10510;47.942;9.442;2023-04-05T03:38:48;94776.72;;;-4.38;100.00
11487;BME280;10510;47.942;9.442;2023-04-05T03:40:50;94781.09;;;-4.40;100.00
11487;BME280;10510;47.942;9.442;2023-04-05T03:42:51;94770.97;;;-4.41;100.00
11487;BME280;10510;47.942;9.442;2023-04-05T03:44:51;94773.63;;;-4.43;100.00
11487;BME280;10510;47.942;9.442;2023-04-05T03:46:52;94770.31;;;-4.45;100.00
11487;BME280;10510;47.942;9.442;2023-04-05T03:48:53;94776.16;;;-4.43;100.00
11487;BME280;10510;47.942;9.442;2023-04-05T03:50:53;94775.63;;;-4.48;100.00
11487;BME280;10510;47.942;9.442;2023-04-05T03:52:53;94778.34;;;-4.51;100.00
11487;BME280;10510;47.942;9.442;2023-04-05T03:54:53;94775.16;;;-4.54;100.00
11487;BME280;10510;47.942;9.442;2023-04-05T03:56:54;94772.59;;;-4.54;100.00
11487;BME280;10510;47.942;9.442;2023-04-05T03:58:55;94764.22;;;-4.57;100.00
11487;BME280;10510;47.942;9.442;2023-04-05T04:00:56;94765.19;;;-4.59;100.00
11487;BME280;10510;47.942;9.442;2023-04-05T04:02:56;94767.22;;;-4.64;100.00
11487;BME280;10510;47.942;9.442;2023-04-05T04:04:56;94766.56;;;-4.68;100.00
11487;BME280;10510;47.942;9.442;2023-04-05T04:06:57;94764.91;;;-4.69;100.00
11487;BME280;10510;47.942;9.442;2023-04-05T04:08:57;94765.03;;;-4.70;100.00
11487;BME280;10510;47.942;9.442;2023-04-05T04:10:58;94765.91;;;-4.71;100.00
11487;BME280;10510;47.942;9.442;2023-04-05T04:12:58;94767.75;;;-4.73;100.00
11487;BME280;10510;47.942;9.442;2023-04-05T04:14:59;94767.09;;;-4.77;100.00
11487;BME280;10510;47.942;9.442;2023-04-05T04:16:59;94766.44;;;-4.81;100.00
11487;BME280;10510;47.942;9.442;2023-04-05T04:19:00;94771.72;;;-4.84;100.00
11487;BME280;10510;47.942;9.442;2023-04-05T04:21:03;94764.25;;;-4.87;100.00
11487;BME280;10510;47.942;9.442;2023-04-05T04:23:07;94766.16;;;-4.90;100.00
11487;BME280;10510;47.942;9.442;2023-04-05T04:25:10;94778.16;;;-4.92;100.00
11487;BME280;10510;47.942;9.442;2023-04-05T04:27:11;94768.13;;;-4.95;100.00
11487;BME280;10510;47.942;9.442;2023-04-05T04:29:12;94763.22;;;-4.98;100.00
11487;BME280;10510;47.942;9.442;2023-04-05T04:31:15;94764.19;;;-5.01;100.00
11487;BME280;10510;47.942;9.442;2023-04-05T04:33:15;94772.03;;;-5.04;100.00
11487;BME280;10510;47.942;9.442;2023-04-05T04:35:17;94770.38;;;-5.05;100.00
11487;BME280;10510;47.942;9.442;2023-04-05T04:37:19;94774.69;;;-5.06;100.00
11487;BME280;10510;47.942;9.442;2023-04-05T04:39:21;94772.13;;;-5.06;100.00
11487;BME280;10510;47.942;9.442;2023-04-05T04:41:25;94773.19;;;-5.10;100.00
11487;BME280;10510;47.942;9.442;2023-04-05T04:43:26;94773.28;;;-5.11;100.00
11487;BME280;10510;47.942;9.442;2023-04-05T04:45:26;94779.44;;;-5.15;100.00
11487;BME280;10510;47.942;9.442;2023-04-05T04:47:26;94777.06;;;-5.18;100.00
11487;BME280;10510;47.942;9.442;2023-04-05T04:49:29;94773.81;;;-5.20;100.00
11487;BME280;10510;47.942;9.442;2023-04-05T04:51:29;94774.03;;;-5.25;100.00
11487;BME280;10510;47.942;9.442;2023-04-05T04:53:29;94779.22;;;-5.27;100.00
11487;BME280;10510;47.942;9.442;2023-04-05T04:55:30;94778.41;;;-5.27;100.00
11487;BME280;10510;47.942;9.442;2023-04-05T04:57:32;94780.06;;;-5.26;100.00
11487;BME280;10510;47.942;9.442;2023-04-05T04:59:32;94772.59;;;-5.29;100.00
11487;BME280;10510;47.942;9.442;2023-04-05T05:01:33;94775.13;;;-5.29;100.00
11487;BME280;10510;47.942;9.442;2023-04-05T05:03:34;94779.38;;;-5.30;100.00
11487;BME280;10510;47.942;9.442;2023-04-05T05:05:35;94782.84;;;-5.31;100.00
11487;BME280;10510;47.942;9.442;2023-04-05T05:07:35;94777.00;;;-5.33;100.00
11487;BME280;10510;47.942;9.442;2023-04-05T05:09:36;94780.41;;;-5.32;100.00
11487;BME280;10510;47.942;9.442;2023-04-05T05:11:36;94780.47;;;-5.34;100.00
11487;BME280;10510;47.942;9.442;2023-04-05T05:13:36;94777.91;;;-5.34;100.00
11487;BME280;10510;47.942;9.442;2023-04-05T05:15:39;94773.75;;;-5.35;100.00
11487;BME280;10510;47.942;9.442;2023-04-05T05:17:40;94780.56;;;-5.35;100.00
11487;BME280;10510;47.942;9.442;2023-04-05T05:19:41;94774.56;;;-5.34;100.00
11487;BME280;10510;47.942;9.442;2023-04-05T05:21:41;94781.28;;;-5.33;100.00
11487;BME280;10510;47.942;9.442;2023-04-05T05:23:41;94779.38;;;-5.30;100.00
11487;BME280;10510;47.942;9.442;2023-04-05T05:25:42;94786.13;;;-5.29;100.00
11487;BME280;10510;47.942;9.442;2023-04-05T05:27:42;94780.06;;;-5.26;100.00
11487;BME280;10510;47.942;9.442;2023-04-05T05:29:42;94781.63;;;-5.23;100.00
11487;BME280;10510;47.942;9.442;2023-04-05T05:31:43;94777.34;;;-5.23;100.00
11487;BME280;10510;47.942;9.442;2023-04-05T05:33:43;94778.78;;;-5.19;100.00
11487;BME280;10510;47.942;9.442;2023-04-05T05:35:49;94782.16;;;-5.18;100.00
11487;BME280;10510;47.942;9.442;2023-04-05T05:37:50;94782.81;;;-5.15;100.00
11487;BME280;10510;47.942;9.442;2023-04-05T05:39:51;94782.63;;;-5.12;100.00
11487;BME280;10510;47.942;9.442;2023-04-05T05:41:51;94779.78;;;-5.06;100.00
11487;BME280;10510;47.942;9.442;2023-04-05T05:43:52;94776.88;;;-4.99;100.00
11487;BME280;10510;47.942;9.442;2023-04-05T05:45:52;94778.09;;;-4.91;100.00
11487;BME280;10510;47.942;9.442;2023-04-05T05:47:53;94782.03;;;-4.85;100.00
11487;BME280;10510;47.942;9.442;2023-04-05T05:49:53;94783.19;;;-4.76;100.00
11487;BME280;10510;47.942;9.442;2023-04-05T05:51:53;94788.50;;;-4.65;100.00
11487;BME280;10510;47.942;9.442;2023-04-05T05:53:53;94777.69;;;-4.54;100.00
11487;BME280;10510;47.942;9.442;2023-04-05T05:55:54;94778.91;;;-4.46;100.00
11487;BME280;10510;47.942;9.442;2023-04-05T05:57:55;94786.84;;;-4.36;100.00
11487;BME280;10510;47.942;9.442;2023-04-05T05:59:55;94788.94;;;-4.28;100.00
11487;BME280;10510;47.942;9.442;2023-04-05T06:01:55;94792.78;;;-4.21;100.00
11487;BME280;10510;47.942;9.442;2023-04-05T06:03:56;94784.66;;;-4.14;100.00
11487;BME280;10510;47.942;9.442;2023-04-05T06:05:57;94784.13;;;-4.04;100.00
11487;BME280;10510;47.942;9.442;2023-04-05T06:07:58;94790.50;;;-3.97;100.00
11487;BME280;10510;47.942;9.442;2023-04-05T06:09:58;94793.41;;;-3.89;100.00
11487;BME280;10510;47.942;9.442;2023-04-05T06:11:59;94789.41;;;-3.79;100.00
11487;BME280;10510;47.942;9.442;2023-04-05T06:14:00;94780.34;;;-3.70;100.00
11487;BME280;10510;47.942;9.442;2023-04-05T06:16:00;94786.72;;;-3.63;100.00
11487;BME280;10510;47.942;9.442;2023-04-05T06:18:01;94785.25;;;-3.53;100.00
11487;BME280;10510;47.942;9.442;2023-04-05T06:20:01;94783.69;;;-3.41;100.00
11487;BME280;10510;47.942;9.442;2023-04-05T06:22:01;94781.56;;;-3.34;100.00
11487;BME280;10510;47.942;9.442;2023-04-05T06:24:01;94784.47;;;-3.26;100.00
11487;BME280;10510;47.942;9.442;2023-04-05T06:26:02;94774.47;;;-3.16;100.00
11487;BME280;10510;47.942;9.442;2023-04-05T06:28:03;94781.56;;;-3.07;100.00
11487;BME280;10510;47.942;9.442;2023-04-05T06:30:05;94791.91;;;-2.96;100.00
11487;BME280;10510;47.942;9.442;2023-04-05T06:32:05;94782.72;;;-2.86;100.00
11487;BME280;10510;47.942;9.442;2023-04-05T06:34:05;94783.78;;;-2.76;100.00
11487;BME280;10510;47.942;9.442;2023-04-05T06:36:06;94785.63;;;-2.65;100.00
11487;BME280;10510;47.942;9.442;2023-04-05T06:38:06;94791.50;;;-2.50;100.00
11487;BME280;10510;47.942;9.442;2023-04-05T06:40:07;94791.19;;;-2.33;100.00
11487;BME280;10510;47.942;9.442;2023-04-05T06:42:07;94787.94;;;-2.09;100.00
11487;BME280;10510;47.942;9.442;2023-04-05T06:44:08;94787.72;;;-1.80;100.00
11487;BME280;10510;47.942;9.442;2023-04-05T06:46:08;94793.63;;;-1.54;100.00
11487;BME280;10510;47.942;9.442;2023-04-05T06:48:10;94789.66;;;-1.34;100.00
11487;BME280;10510;47.942;9.442;2023-04-05T06:50:11;94790.22;;;-1.18;100.00
11487;BME280;10510;47.942;9.442;2023-04-05T06:52:11;94794.28;;;-1.03;100.00
11487;BME280;10510;47.942;9.442;2023-04-05T06:54:11;94791.91;;;-0.82;100.00
11487;BME280;10510;47.942;9.442;2023-04-05T06:56:11;94782.22;;;-0.54;100.00
11487;BME280;10510;47.942;9.442;2023-04-05T06:58:12;94789.41;;;-0.35;100.00
11487;BME280;10510;47.942;9.442;2023-04-05T07:00:13;94788.59;;;-0.13;100.00
11487;BME280;10510;47.942;9.442;2023-04-05T07:02:15;94786.50;;;0.14;100.00
11487;BME280;10510;47.942;9.442;2023-04-05T07:04:15;94781.84;;;0.31;100.00
11487;BME280;10510;47.942;9.442;2023-04-05T07:06:15;94786.19;;;0.41;100.00
11487;BME280;10510;47.942;9.442;2023-04-05T07:08:16;94788.06;;;0.51;100.00
11487;BME280;10510;47.942;9.442;2023-04-05T07:10:17;94790.13;;;0.68;100.00
11487;BME280;10510;47.942;9.442;2023-04-05T07:12:17;94786.81;;;0.88;100.00
11487;BME280;10510;47.942;9.442;2023-04-05T07:14:17;94787.69;;;1.10;100.00
11487;BME280;10510;47.942;9.442;2023-04-05T07:16:17;94788.53;;;1.31;100.00
11487;BME280;10510;47.942;9.442;2023-04-05T07:18:22;94791.38;;;1.49;100.00
11487;BME280;10510;47.942;9.442;2023-04-05T07:20:22;94787.50;;;1.55;100.00
11487;BME280;10510;47.942;9.442;2023-04-05T07:22:22;94785.31;;;1.71;100.00
11487;BME280;10510;47.942;9.442;2023-04-05T07:24:22;94780.53;;;1.88;100.00
11487;BME280;10510;47.942;9.442;2023-04-05T07:26:23;94780.09;;;2.03;100.00
11487;BME280;10510;47.942;9.442;2023-04-05T07:28:23;94774.63;;;2.27;100.00
11487;BME280;10510;47.942;9.442;2023-04-05T07:30:25;94776.78;;;2.53;100.00
11487;BME280;10510;47.942;9.442;2023-04-05T07:32:26;94781.44;;;2.79;100.00
11487;BME280;10510;47.942;9.442;2023-04-05T07:34:26;94788.00;;;3.02;100.00
11487;BME280;10510;47.942;9.442;2023-04-05T07:36:27;94784.50;;;3.23;100.00
11487;BME280;10510;47.942;9.442;2023-04-05T07:38:29;94781.53;;;3.47;100.00
11487;BME280;10510;47.942;9.442;2023-04-05T07:40:30;94785.88;;;3.66;100.00
11487;BME280;10510;47.942;9.442;2023-04-05T07:42:30;94782.16;;;3.87;100.00
11487;BME280;10510;47.942;9.442;2023-04-05T07:44:31;94781.19;;;4.08;100.00
11487;BME280;10510;47.942;9.442;2023-04-05T07:46:31;94780.00;;;4.40;100.00
11487;BME280;10510;47.942;9.442;2023-04-05T07:48:31;94783.22;;;4.79;100.00
11487;BME280;10510;47.942;9.442;2023-04-05T07:50:33;94791.63;;;5.09;100.00
11487;BME280;10510;47.942;9.442;2023-04-05T07:52:33;94787.91;;;5.39;100.00
11487;BME280;10510;47.942;9.442;2023-04-05T07:54:34;94784.69;;;5.81;100.00
11487;BME280;10510;47.942;9.442;2023-04-05T07:56:37;94797.94;;;6.13;100.00
11487;BME280;10510;47.942;9.442;2023-04-05T07:58:37;94783.06;;;6.50;100.00
11487;BME280;10510;47.942;9.442;2023-04-05T08:00:41;94785.84;;;6.91;100.00
11487;BME280;10510;47.942;9.442;2023-04-05T08:02:41;94787.75;;;7.31;100.00
11487;BME280;10510;47.942;9.442;2023-04-05T08:04:41;94779.34;;;7.62;100.00
11487;BME280;10510;47.942;9.442;2023-04-05T08:06:42;94784.88;;;7.91;100.00
11487;BME280;10510;47.942;9.442;2023-04-05T08:08:43;94788.94;;;8.02;100.00
11487;BME280;10510;47.942;9.442;2023-04-05T08:10:44;94794.13;;;8.10;100.00
11487;BME280;10510;47.942;9.442;2023-04-05T08:12:44;94788.28;;;8.16;100.00
11487;BME280;10510;47.942;9.442;2023-04-05T08:14:44;94783.53;;;8.36;100.00
11487;BME280;10510;47.942;9.442;2023-04-05T08:16:45;94780.91;;;8.53;100.00
11487;BME280;10510;47.942;9.442;2023-04-05T08:18:45;94787.69;;;8.78;100.00
11487;BME280;10510;47.942;9.442;2023-04-05T08:20:50;94784.06;;;8.79;100.00
11487;BME280;10510;47.942;9.442;2023-04-05T08:22:50;94775.56;;;8.94;100.00
11487;BME280;10510;47.942;9.442;2023-04-05T08:24:50;94782.97;;;9.13;100.00
11487;BME280;10510;47.942;9.442;2023-04-05T08:26:51;94787.94;;;9.31;100.00
11487;BME280;10510;47.942;9.442;2023-04-05T08:28:51;94780.19;;;9.46;100.00
11487;BME280;10510;47.942;9.442;2023-04-05T08:30:52;94781.78;;;9.47;100.00
11487;BME280;10510;47.942;9.442;2023-04-05T08:32:54;94780.97;;;9.46;100.00
11487;BME280;10510;47.942;9.442;2023-04-05T08:34:54;94783.25;;;9.49;100.00
11487;BME280;10510;47.942;9.442;2023-04-05T08:36:58;94777.47;;;9.62;100.00
11487;BME280;10510;47.942;9.442;2023-04-05T08:38:59;94779.84;;;9.72;100.00
11487;BME280;10510;47.942;9.442;2023-04-05T08:41:29;94783.22;;;9.81;100.00
11487;BME280;10510;47.942;9.442;2023-04-05T08:43:43;94780.28;;;9.98;100.00
11487;BME280;10510;47.942;9.442;2023-04-05T08:45:49;94774.97;;;9.92;100.00
11487;BME280;10510;47.942;9.442;2023-04-05T08:47:51;94786.81;;;10.17;100.00
11487;BME280;10510;47.942;9.442;2023-04-05T08:49:54;94786.28;;;10.22;100.00
11487;BME280;10510;47.942;9.442;2023-04-05T08:51:55;94782.31;;;10.26;100.00
11487;BME280;10510;47.942;9.442;2023-04-05T08:53:55;94788.50;;;10.33;100.00
11487;BME280;10510;47.942;9.442;2023-04-05T08:55:59;94774.72;;;10.39;100.00
11487;BME280;10510;47.942;9.442;2023-04-05T08:58:00;94788.09;;;10.59;100.00
11487;BME280;10510;47.942;9.442;2023-04-05T09:00:05;94790.34;;;10.77;100.00
11487;BME280;10510;47.942;9.442;2023-04-05T09:02:16;94785.81;;;11.01;100.00
11487;BME280;10510;47.942;9.442;2023-04-05T09:04:20;94784.53;;;11.11;100.00
11487;BME280;10510;47.942;9.442;2023-04-05T09:06:21;94781.19;;;11.03;100.00
11487;BME280;10510;47.942;9.442;2023-04-05T09:08:22;94777.94;;;11.30;100.00
11487;BME280;10510;47.942;9.442;2023-04-05T09:10:23;94782.50;;;11.43;100.00
11487;BME280;10510;47.942;9.442;2023-04-05T09:12:24;94778.31;;;11.49;100.00
11487;BME280;10510;47.942;9.442;2023-04-05T09:14:25;94789.75;;;11.26;100.00
11487;BME280;10510;47.942;9.442;2023-04-05T09:16:27;94786.16;;;11.27;100.00
11487;BME280;10510;47.942;9.442;2023-04-05T09:18:27;94781.41;;;11.37;100.00
11487;BME280;10510;47.942;9.442;2023-04-05T09:20:28;94795.50;;;11.36;100.00
11487;BME280;10510;47.942;9.442;2023-04-05T09:22:28;94790.94;;;11.60;100.00
11487;BME280;10510;47.942;9.442;2023-04-05T09:24:30;94789.97;;;11.46;100.00
11487;BME280;10510;47.942;9.442;2023-04-05T09:26:30;94793.16;;;11.42;100.00
11487;BME280;10510;47.942;9.442;2023-04-05T09:28:40;94802.78;;;11.77;100.00
11487;BME280;10510;47.942;9.442;2023-04-05T09:30:45;94795.00;;;11.84;100.00
11487;BME280;10510;47.942;9.442;2023-04-05T09:32:46;94796.72;;;11.92;100.00
11487;BME280;10510;47.942;9.442;2023-04-05T09:34:47;94789.88;;;11.76;100.00
11487;BME280;10510;47.942;9.442;2023-04-05T09:36:48;94796.28;;;11.73;100.00
11487;BME280;10510;47.942;9.442;2023-04-05T09:38:48;94792.47;;;11.91;100.00
11487;BME280;10510;47.942;9.442;2023-04-05T09:40:48;94792.28;;;11.92;100.00
11487;BME280;10510;47.942;9.442;2023-04-05T09:42:50;94791.28;;;12.15;100.00
11487;BME280;10510;47.942;9.442;2023-04-05T09:46:56;94795.97;;;12.26;100.00
11487;BME280;10510;47.942;9.442;2023-04-05T09:48:56;94798.59;;;12.47;100.00
11487;BME280;10510;47.942;9.442;2023-04-05T09:51:03;94802.16;;;12.40;100.00
11487;BME280;10510;47.942;9.442;2023-04-05T09:53:08;94795.34;;;12.45;100.00
11487;BME280;10510;47.942;9.442;2023-04-05T09:55:09;94806.63;;;12.46;100.00
11487;BME280;10510;47.942;9.442;2023-04-05T09:57:10;94803.41;;;12.22;100.00
11487;BME280;10510;47.942;9.442;2023-04-05T09:59:11;94801.06;;;12.06;100.00
11487;BME280;10510;47.942;9.442;2023-04-05T10:01:13;94803.88;;;12.04;100.00
11487;BME280;10510;47.942;9.442;2023-04-05T10:03:13;94799.25;;;12.07;100.00
11487;BME280;10510;47.942;9.442;2023-04-05T10:05:14;94803.06;;;12.04;100.00
11487;BME280;10510;47.942;9.442;2023-04-05T10:07:16;94794.03;;;12.35;100.00
11487;BME280;10510;47.942;9.442;2023-04-05T10:09:17;94795.78;;;12.84;100.00
11487;BME280;10510;47.942;9.442;2023-04-05T10:11:19;94792.66;;;13.02;100.00
11487;BME280;10510;47.942;9.442;2023-04-05T10:13:19;94791.59;;;12.96;100.00
11487;BME280;10510;47.942;9.442;2023-04-05T10:15:21;94799.63;;;12.88;100.00
11487;BME280;10510;47.942;9.442;2023-04-05T10:17:30;94795.75;;;13.12;100.00
11487;BME280;10510;47.942;9.442;2023-04-05T10:19:49;94800.16;;;13.11;100.00
11487;BME280;10510;47.942;9.442;2023-04-05T10:21:53;94794.75;;;13.19;100.00
11487;BME280;10510;47.942;9.442;2023-04-05T10:24:00;94790.75;;;13.24;100.00
11487;BME280;10510;47.942;9.442;2023-04-05T10:26:18;94789.59;;;12.91;100.00
11487;BME280;10510;47.942;9.442;2023-04-05T10:28:36;94791.59;;;12.89;100.00
11487;BME280;10510;47.942;9.442;2023-04-05T10:30:45;94794.44;;;12.94;100.00
11487;BME280;10510;47.942;9.442;2023-04-05T10:35:18;94788.19;;;13.30;100.00
11487;BME280;10510;47.942;9.442;2023-04-05T10:39:47;94790.94;;;13.22;100.00
11487;BME280;10510;47.942;9.442;2023-04-05T10:41:51;94786.06;;;13.12;100.00
11487;BME280;10510;47.942;9.442;2023-04-05T10:43:55;94791.94;;;13.21;100.00
11487;BME280;10510;47.942;9.442;2023-04-05T10:45:56;94788.81;;;13.39;100.00
11487;BME280;10510;47.942;9.442;2023-04-05T10:48:04;94788.75;;;13.26;100.00
11487;BME280;10510;47.942;9.442;2023-04-05T10:50:08;94789.16;;;13.29;100.00
11487;BME280;10510;47.942;9.442;2023-04-05T10:52:11;94786.47;;;13.16;100.00
11487;BME280;10510;47.942;9.442;2023-04-05T10:54:12;94789.25;;;13.08;100.00
11487;BME280;10510;47.942;9.442;2023-04-05T10:56:17;94775.56;;;13.12;100.00
11487;BME280;10510;47.942;9.442;2023-04-05T10:58:19;94777.78;;;13.15;100.00
11487;BME280;10510;47.942;9.442;2023-04-05T11:00:21;94781.28;;;13.29;100.00
11487;BME280;10510;47.942;9.442;2023-04-05T11:02:22;94776.47;;;13.33;100.00